createdAt,value
2024-03-28T00:00:00.497Z,937.8
2024-03-28T00:01:01.360Z,937.8
2024-03-28T00:02:00.874Z,937.8
2024-03-28T00:03:00.403Z,937.8
2024-03-28T00:04:00.406Z,937.8
2024-03-28T00:05:00.447Z,937.8
2024-03-28T00:06:00.660Z,937.8
2024-03-28T00:07:00.643Z,937.8
2024-03-28T00:08:00.408Z,937.8
2024-03-28T00:09:00.436Z,937.8
2024-03-28T00:10:00.415Z,937.8
2024-03-28T00:11:00.479Z,937.8
2024-03-28T00:12:00.414Z,937.8
2024-03-28T00:13:00.413Z,937.8
2024-03-28T00:14:00.396Z,937.8
2024-03-28T00:15:00.455Z,937.8
2024-03-28T00:16:01.159Z,937.8
2024-03-28T00:17:01.079Z,937.8
2024-03-28T00:18:00.405Z,937.8
2024-03-28T00:19:02.094Z,937.7
2024-03-28T00:20:00.502Z,937.7
2024-03-28T00:21:01.367Z,937.7
2024-03-28T00:22:00.439Z,937.7
2024-03-28T00:23:01.018Z,937.7
2024-03-28T00:24:00.432Z,937.7
2024-03-28T00:25:00.423Z,937.7
2024-03-28T00:26:00.403Z,937.7
2024-03-28T00:27:00.379Z,937.7
2024-03-28T00:28:01.380Z,937.7
2024-03-28T00:29:00.400Z,937.7
2024-03-28T00:30:00.415Z,937.6
2024-03-28T00:31:00.906Z,937.6
2024-03-28T00:32:00.451Z,937.6
2024-03-28T00:33:00.426Z,937.6
2024-03-28T00:34:00.412Z,937.6
2024-03-28T00:35:00.409Z,937.6
2024-03-28T00:36:00.420Z,937.6
2024-03-28T00:37:00.420Z,937.6
2024-03-28T00:38:00.520Z,937.6
2024-03-28T00:39:00.419Z,937.6
2024-03-28T00:40:00.394Z,937.6
2024-03-28T00:41:01.440Z,937.6
2024-03-28T00:42:00.444Z,937.6
2024-03-28T00:43:00.533Z,937.6
2024-03-28T00:44:00.483Z,937.6
2024-03-28T00:45:00.691Z,937.6
2024-03-28T00:46:00.561Z,937.6
2024-03-28T00:47:00.389Z,937.6
2024-03-28T00:48:00.376Z,937.6
2024-03-28T00:49:00.826Z,937.6
2024-03-28T00:50:00.431Z,937.6
2024-03-28T00:51:00.751Z,937.6
2024-03-28T00:52:00.416Z,937.6
2024-03-28T00:53:00.581Z,937.6
2024-03-28T00:54:00.396Z,937.6
2024-03-28T00:55:00.470Z,937.6
2024-03-28T00:56:00.736Z,937.6
2024-03-28T00:57:00.405Z,937.6
2024-03-28T00:58:00.429Z,937.6
2024-03-28T00:59:00.387Z,937.6
2024-03-28T01:00:00.625Z,937.6
2024-03-28T01:01:02.267Z,937.6
2024-03-28T01:02:00.416Z,937.6
2024-03-28T01:03:00.425Z,937.6
2024-03-28T01:04:00.396Z,937.5
2024-03-28T01:05:00.411Z,937.5
2024-03-28T01:06:00.798Z,937.5
2024-03-28T01:07:00.432Z,937.5
2024-03-28T01:08:00.512Z,937.5
2024-03-28T01:09:00.444Z,937.4
2024-03-28T01:10:00.515Z,937.4
2024-03-28T01:11:00.400Z,937.4
2024-03-28T01:12:00.605Z,937.4
2024-03-28T01:13:00.478Z,937.4
2024-03-28T01:14:00.401Z,937.4
2024-03-28T01:15:00.458Z,937.3
2024-03-28T01:16:00.408Z,937.3
2024-03-28T01:17:00.480Z,937.3
2024-03-28T01:18:00.560Z,937.3
2024-03-28T01:19:00.413Z,937.3
2024-03-28T01:20:00.489Z,937.3
2024-03-28T01:21:07.726Z,937.3
2024-03-28T01:22:00.412Z,937.3
2024-03-28T01:23:00.572Z,937.3
2024-03-28T01:24:00.409Z,937.3
2024-03-28T01:25:00.442Z,937.2
2024-03-28T01:26:03.766Z,937.2
2024-03-28T01:27:00.432Z,937.2
2024-03-28T01:28:00.448Z,937.2
2024-03-28T01:29:00.428Z,937.2
2024-03-28T01:30:00.457Z,937.2
2024-03-28T01:31:00.461Z,937.2
2024-03-28T01:32:01.317Z,937.1
2024-03-28T01:33:00.395Z,937.1
2024-03-28T01:34:00.400Z,937.1
2024-03-28T01:35:00.587Z,937.1
2024-03-28T01:36:00.395Z,937.1
2024-03-28T01:37:00.401Z,937.1
2024-03-28T01:38:00.383Z,937.1
2024-03-28T01:39:00.568Z,937.1
2024-03-28T01:40:00.663Z,937.1
2024-03-28T01:41:00.408Z,937.1
2024-03-28T01:42:01.455Z,937.1
2024-03-28T01:43:05.321Z,937.1
2024-03-28T01:44:00.401Z,937.1
2024-03-28T01:45:00.475Z,937.1
2024-03-28T01:46:04.605Z,937.1
2024-03-28T01:47:17.523Z,937.1
2024-03-28T01:48:02.843Z,937.1
2024-03-28T01:49:00.697Z,937.1
2024-03-28T01:50:00.545Z,937.1
2024-03-28T01:51:00.713Z,937.1
2024-03-28T01:52:01.574Z,937.1
2024-03-28T01:53:00.738Z,937.1
2024-03-28T01:54:00.604Z,937.1
2024-03-28T01:55:01.623Z,937.1
2024-03-28T01:56:00.523Z,937.1
2024-03-28T01:57:01.161Z,937.1
2024-03-28T01:58:00.683Z,937.1
2024-03-28T01:59:01.644Z,937.1
2024-03-28T02:00:00.497Z,937.1
2024-03-28T02:01:00.577Z,937.1
2024-03-28T02:02:02.262Z,937.1
2024-03-28T02:03:00.414Z,937.1
2024-03-28T02:04:00.436Z,937.1
2024-03-28T02:05:00.457Z,937.1
2024-03-28T02:06:00.584Z,937.1
2024-03-28T02:07:00.549Z,937.1
2024-03-28T02:08:00.410Z,937.1
2024-03-28T02:09:02.397Z,937.0
2024-03-28T02:10:00.493Z,937.0
2024-03-28T02:11:00.497Z,937.0
2024-03-28T02:12:00.824Z,937.0
2024-03-28T02:13:00.499Z,937.0
2024-03-28T02:14:00.929Z,937.0
2024-03-28T02:15:00.545Z,937.0
2024-03-28T02:16:00.403Z,937.0
2024-03-28T02:17:07.689Z,937.0
2024-03-28T02:18:00.398Z,937.0
2024-03-28T02:19:00.490Z,937.1
2024-03-28T02:20:00.386Z,937.1
2024-03-28T02:21:00.450Z,937.1
2024-03-28T02:22:01.021Z,937.1
2024-03-28T02:23:00.440Z,937.1
2024-03-28T02:24:00.506Z,937.0
2024-03-28T02:25:00.627Z,937.0
2024-03-28T02:26:00.405Z,937.0
2024-03-28T02:27:00.417Z,937.0
2024-03-28T02:28:00.408Z,937.0
2024-03-28T02:29:00.434Z,937.0
2024-03-28T02:30:02.432Z,937.0
2024-03-28T02:31:00.511Z,937.0
2024-03-28T02:32:00.403Z,937.0
2024-03-28T02:33:00.431Z,937.0
2024-03-28T02:34:00.975Z,937.0
2024-03-28T02:35:01.962Z,936.9
2024-03-28T02:36:00.395Z,936.9
2024-03-28T02:37:00.390Z,936.9
2024-03-28T02:38:00.464Z,936.9
2024-03-28T02:39:00.392Z,936.9
2024-03-28T02:40:00.610Z,936.9
2024-03-28T02:41:00.540Z,936.9
2024-03-28T02:42:00.414Z,936.9
2024-03-28T02:43:00.406Z,936.9
2024-03-28T02:44:00.426Z,936.9
2024-03-28T02:45:00.516Z,936.9
2024-03-28T02:46:00.415Z,936.9
2024-03-28T02:47:00.410Z,936.9
2024-03-28T02:48:00.407Z,936.9
2024-03-28T02:49:00.402Z,936.9
2024-03-28T02:50:00.463Z,936.9
2024-03-28T02:51:00.469Z,936.9
2024-03-28T02:52:00.509Z,936.9
2024-03-28T02:53:00.527Z,936.9
2024-03-28T02:54:00.524Z,936.9
2024-03-28T02:55:00.423Z,936.9
2024-03-28T02:56:00.474Z,936.9
2024-03-28T02:57:01.281Z,936.9
2024-03-28T02:58:00.630Z,936.9
2024-03-28T02:59:00.426Z,936.9
2024-03-28T03:00:00.549Z,936.9
2024-03-28T03:01:02.318Z,936.9
2024-03-28T03:02:00.470Z,936.9
2024-03-28T03:03:00.469Z,936.9
2024-03-28T03:04:00.402Z,936.9
2024-03-28T03:05:00.555Z,936.9
2024-03-28T03:06:00.484Z,936.9
2024-03-28T03:07:00.478Z,936.9
2024-03-28T03:08:00.449Z,936.9
2024-03-28T03:09:00.556Z,936.9
2024-03-28T03:10:00.650Z,936.9
2024-03-28T03:11:00.442Z,936.9
2024-03-28T03:12:00.491Z,936.9
2024-03-28T03:13:00.463Z,936.9
2024-03-28T03:14:00.512Z,936.9
2024-03-28T03:15:00.656Z,936.9
2024-03-28T03:16:00.544Z,936.9
2024-03-28T03:17:00.540Z,936.9
2024-03-28T03:18:00.563Z,936.9
2024-03-28T03:19:01.141Z,936.9
2024-03-28T03:20:00.803Z,936.9
2024-03-28T03:21:01.083Z,936.9
2024-03-28T03:22:00.550Z,936.9
2024-03-28T03:23:00.548Z,936.9
2024-03-28T03:24:00.582Z,936.9
2024-03-28T03:25:00.523Z,936.9
2024-03-28T03:26:00.561Z,936.9
2024-03-28T03:27:01.914Z,936.9
2024-03-28T03:28:00.621Z,936.9
2024-03-28T03:29:00.773Z,936.9
2024-03-28T03:30:00.586Z,936.9
2024-03-28T03:31:00.607Z,936.9
2024-03-28T03:32:01.351Z,936.9
2024-03-28T03:33:00.446Z,936.9
2024-03-28T03:34:00.401Z,936.9
2024-03-28T03:35:00.389Z,936.9
2024-03-28T03:36:00.404Z,936.9
2024-03-28T03:37:01.316Z,936.9
2024-03-28T03:38:00.397Z,936.9
2024-03-28T03:39:00.435Z,936.9
2024-03-28T03:40:00.453Z,936.9
2024-03-28T03:41:00.415Z,936.9
2024-03-28T03:42:00.396Z,936.9
2024-03-28T03:43:00.430Z,936.9
2024-03-28T03:44:00.425Z,936.9
2024-03-28T03:45:00.840Z,936.9
2024-03-28T03:46:00.397Z,936.9
2024-03-28T03:47:00.676Z,936.9
2024-03-28T03:48:00.419Z,936.9
2024-03-28T03:49:00.416Z,936.9
2024-03-28T03:50:00.418Z,936.9
2024-03-28T03:51:00.442Z,936.9
2024-03-28T03:52:00.406Z,936.9
2024-03-28T03:53:00.412Z,936.8
2024-03-28T03:54:00.410Z,936.8
2024-03-28T03:55:00.389Z,936.8
2024-03-28T03:56:00.412Z,936.8
2024-03-28T03:57:00.425Z,936.8
2024-03-28T03:58:00.411Z,936.8
2024-03-28T03:59:00.836Z,936.8
2024-03-28T04:00:00.412Z,936.8
2024-03-28T04:01:00.441Z,936.8
2024-03-28T04:02:00.456Z,936.8
2024-03-28T04:03:00.405Z,936.8
2024-03-28T04:04:00.452Z,936.8
2024-03-28T04:05:00.392Z,936.8
2024-03-28T04:06:00.884Z,936.8
2024-03-28T04:07:00.438Z,936.7
2024-03-28T04:08:00.473Z,936.7
2024-03-28T04:09:00.422Z,936.7
2024-03-28T04:10:00.429Z,936.7
2024-03-28T04:11:00.398Z,936.7
2024-03-28T04:12:00.432Z,936.7
2024-03-28T04:13:00.501Z,936.7
2024-03-28T04:14:00.537Z,936.7
2024-03-28T04:15:00.442Z,936.7
2024-03-28T04:16:00.511Z,936.7
2024-03-28T04:17:00.431Z,936.7
2024-03-28T04:18:00.424Z,936.7
2024-03-28T04:19:00.421Z,936.7
2024-03-28T04:20:01.001Z,936.7
2024-03-28T04:21:00.493Z,936.7
2024-03-28T04:22:00.426Z,936.7
2024-03-28T04:23:00.392Z,936.7
2024-03-28T04:24:01.127Z,936.7
2024-03-28T04:25:00.433Z,936.7
2024-03-28T04:26:00.463Z,936.6
2024-03-28T04:27:01.814Z,936.6
2024-03-28T04:28:00.427Z,936.6
2024-03-28T04:29:00.439Z,936.6
2024-03-28T04:30:02.226Z,936.6
2024-03-28T04:31:00.463Z,936.6
2024-03-28T04:32:00.404Z,936.6
2024-03-28T04:33:00.451Z,936.6
2024-03-28T04:34:00.399Z,936.5
2024-03-28T04:35:00.476Z,936.5
2024-03-28T04:36:00.412Z,936.5
2024-03-28T04:37:00.428Z,936.5
2024-03-28T04:38:00.393Z,936.5
2024-03-28T04:39:00.398Z,936.5
2024-03-28T04:40:00.424Z,936.5
2024-03-28T04:41:00.436Z,936.5
2024-03-28T04:42:00.411Z,936.5
2024-03-28T04:43:00.439Z,936.5
2024-03-28T04:44:00.393Z,936.5
2024-03-28T04:45:00.527Z,936.5
2024-03-28T04:46:00.486Z,936.5
2024-03-28T04:47:00.431Z,936.5
2024-03-28T04:48:00.462Z,936.5
2024-03-28T04:49:00.418Z,936.5
2024-03-28T04:50:00.885Z,936.5
2024-03-28T04:51:00.407Z,936.4
2024-03-28T04:52:00.415Z,936.4
2024-03-28T04:53:00.411Z,936.4
2024-03-28T04:54:00.419Z,936.4
2024-03-28T04:55:00.730Z,936.4
2024-03-28T04:56:00.418Z,936.4
2024-03-28T04:57:00.716Z,936.4
2024-03-28T04:58:00.405Z,936.4
2024-03-28T04:59:00.398Z,936.3
2024-03-28T05:00:00.634Z,936.3
2024-03-28T05:01:00.407Z,936.3
2024-03-28T05:02:00.503Z,936.3
2024-03-28T05:03:00.398Z,936.3
2024-03-28T05:04:00.544Z,936.3
2024-03-28T05:05:00.734Z,936.3
2024-03-28T05:06:00.396Z,936.3
2024-03-28T05:07:00.426Z,936.2
2024-03-28T05:08:00.536Z,936.2
2024-03-28T05:09:00.570Z,936.2
2024-03-28T05:10:00.547Z,936.2
2024-03-28T05:11:00.393Z,936.2
2024-03-28T05:12:00.423Z,936.2
2024-03-28T05:13:00.392Z,936.2
2024-03-28T05:14:00.411Z,936.2
2024-03-28T05:15:00.450Z,936.2
2024-03-28T05:16:00.408Z,936.1
2024-03-28T05:17:00.424Z,936.1
2024-03-28T05:18:00.403Z,936.1
2024-03-28T05:19:00.432Z,936.1
2024-03-28T05:20:00.480Z,936.1
2024-03-28T05:21:00.385Z,936.1
2024-03-28T05:22:00.815Z,936.1
2024-03-28T05:23:00.421Z,936.1
2024-03-28T05:24:00.497Z,936.1
2024-03-28T05:25:00.590Z,936.1
2024-03-28T05:26:00.500Z,936.0
2024-03-28T05:27:00.703Z,936.0
2024-03-28T05:28:00.392Z,936.0
2024-03-28T05:29:00.543Z,936.0
2024-03-28T05:30:01.008Z,936.0
2024-03-28T05:31:00.407Z,936.0
2024-03-28T05:32:00.453Z,936.0
2024-03-28T05:33:00.401Z,936.0
2024-03-28T05:34:00.524Z,936.0
2024-03-28T05:35:00.400Z,936.0
2024-03-28T05:36:00.394Z,936.0
2024-03-28T05:37:00.390Z,936.0
2024-03-28T05:38:00.460Z,936.0
2024-03-28T05:39:00.394Z,936.0
2024-03-28T05:40:00.411Z,936.0
2024-03-28T05:41:00.415Z,936.0
2024-03-28T05:42:00.504Z,936.0
2024-03-28T05:43:00.433Z,936.0
2024-03-28T05:44:01.188Z,936.0
2024-03-28T05:45:00.424Z,936.0
2024-03-28T05:46:00.399Z,936.0
2024-03-28T05:47:00.543Z,936.0
2024-03-28T05:48:00.388Z,936.0
2024-03-28T05:49:00.391Z,936.0
2024-03-28T05:50:00.429Z,936.0
2024-03-28T05:51:00.445Z,936.0
2024-03-28T05:52:00.409Z,936.1
2024-03-28T05:53:00.402Z,936.1
2024-03-28T05:54:00.427Z,936.1
2024-03-28T05:55:00.435Z,936.1
2024-03-28T05:56:00.507Z,936.1
2024-03-28T05:57:00.429Z,936.1
2024-03-28T05:58:00.411Z,936.1
2024-03-28T05:59:00.426Z,936.1
2024-03-28T06:00:00.500Z,936.1
2024-03-28T06:01:00.387Z,936.1
2024-03-28T06:02:00.388Z,936.1
2024-03-28T06:03:00.437Z,936.1
2024-03-28T06:04:00.414Z,936.1
2024-03-28T06:05:00.411Z,936.1
2024-03-28T06:06:00.411Z,936.1
2024-03-28T06:07:00.412Z,936.1
2024-03-28T06:08:00.387Z,936.1
2024-03-28T06:09:00.426Z,936.2
2024-03-28T06:10:00.395Z,936.2
2024-03-28T06:11:00.401Z,936.2
2024-03-28T06:12:00.390Z,936.2
2024-03-28T06:13:00.436Z,936.2
2024-03-28T06:14:08.875Z,936.2
2024-03-28T06:15:00.453Z,936.2
2024-03-28T06:16:00.930Z,936.2
2024-03-28T06:17:00.400Z,936.2
2024-03-28T06:18:00.425Z,936.2
2024-03-28T06:19:01.429Z,936.2
2024-03-28T06:20:00.515Z,936.2
2024-03-28T06:21:01.089Z,936.2
2024-03-28T06:22:00.486Z,936.2
2024-03-28T06:23:00.469Z,936.2
2024-03-28T06:24:00.495Z,936.2
2024-03-28T06:25:00.549Z,936.2
2024-03-28T06:26:01.070Z,936.2
2024-03-28T06:27:00.463Z,936.2
2024-03-28T06:28:00.492Z,936.1
2024-03-28T06:29:00.440Z,936.1
2024-03-28T06:30:00.655Z,936.1
2024-03-28T06:31:00.599Z,936.1
2024-03-28T06:32:00.483Z,936.1
2024-03-28T06:33:00.585Z,936.1
2024-03-28T06:34:00.835Z,936.1
2024-03-28T06:35:00.494Z,936.1
2024-03-28T06:36:00.454Z,936.1
2024-03-28T06:37:00.476Z,936.1
2024-03-28T06:38:00.557Z,936.1
2024-03-28T06:39:00.626Z,936.1
2024-03-28T06:40:00.489Z,936.1
2024-03-28T06:41:01.265Z,936.1
2024-03-28T06:42:00.447Z,936.1
2024-03-28T06:43:00.458Z,936.1
2024-03-28T06:44:00.491Z,936.1
2024-03-28T06:45:00.517Z,936.1
2024-03-28T06:46:00.432Z,936.1
2024-03-28T06:47:00.477Z,936.0
2024-03-28T06:48:00.529Z,936.0
2024-03-28T06:49:00.431Z,936.0
2024-03-28T06:50:00.497Z,936.0
2024-03-28T06:51:00.526Z,936.0
2024-03-28T06:52:00.445Z,936.0
2024-03-28T06:53:00.623Z,936.0
2024-03-28T06:54:00.641Z,936.0
2024-03-28T06:55:00.604Z,936.0
2024-03-28T06:56:00.633Z,936.0
2024-03-28T06:57:00.596Z,936.0
2024-03-28T06:58:00.636Z,936.0
2024-03-28T06:59:00.553Z,936.0
2024-03-28T07:00:00.650Z,936.0
2024-03-28T07:01:02.331Z,936.0
2024-03-28T07:02:00.591Z,936.0
2024-03-28T07:03:00.621Z,936.0
2024-03-28T07:04:00.592Z,936.0
2024-03-28T07:05:00.541Z,936.0
2024-03-28T07:06:02.591Z,936.0
2024-03-28T07:07:00.658Z,936.1
2024-03-28T07:08:00.646Z,936.1
2024-03-28T07:09:00.680Z,936.1
2024-03-28T07:10:00.556Z,936.1
2024-03-28T07:11:00.611Z,936.1
2024-03-28T07:12:00.589Z,936.1
2024-03-28T07:13:00.421Z,936.1
2024-03-28T07:14:00.696Z,936.1
2024-03-28T07:15:00.403Z,936.2
2024-03-28T07:16:00.409Z,936.2
2024-03-28T07:17:00.462Z,936.2
2024-03-28T07:18:00.399Z,936.2
2024-03-28T07:19:01.543Z,936.2
2024-03-28T07:20:00.412Z,936.3
2024-03-28T07:21:00.397Z,936.3
2024-03-28T07:22:00.438Z,936.3
2024-03-28T07:23:00.894Z,936.3
2024-03-28T07:24:00.399Z,936.4
2024-03-28T07:25:00.442Z,936.4
2024-03-28T07:26:00.425Z,936.4
2024-03-28T07:27:00.651Z,936.4
2024-03-28T07:28:00.512Z,936.5
2024-03-28T07:29:03.720Z,936.5
2024-03-28T07:30:00.483Z,936.5
2024-03-28T07:31:00.458Z,936.6
2024-03-28T07:32:00.424Z,936.6
2024-03-28T07:33:00.495Z,936.6
2024-03-28T07:34:00.494Z,936.7
2024-03-28T07:35:00.474Z,936.7
2024-03-28T07:36:00.398Z,936.7
2024-03-28T07:37:00.664Z,936.7
2024-03-28T07:38:00.389Z,936.8
2024-03-28T07:39:00.411Z,936.8
2024-03-28T07:40:00.406Z,936.8
2024-03-28T07:41:00.406Z,936.9
2024-03-28T07:42:00.418Z,936.9
2024-03-28T07:43:00.592Z,936.9
2024-03-28T07:44:00.434Z,936.9
2024-03-28T07:45:00.555Z,936.9
2024-03-28T07:46:01.281Z,936.9
2024-03-28T07:47:00.397Z,937.0
2024-03-28T07:48:00.400Z,937.0
2024-03-28T07:49:01.790Z,937.0
2024-03-28T07:50:00.401Z,937.0
2024-03-28T07:51:01.266Z,937.0
2024-03-28T07:52:00.417Z,937.0
2024-03-28T07:53:00.441Z,937.1
2024-03-28T07:54:00.441Z,937.1
2024-03-28T07:55:00.448Z,937.1
2024-03-28T07:56:00.437Z,937.1
2024-03-28T07:57:00.412Z,937.1
2024-03-28T07:58:00.411Z,937.2
2024-03-28T07:59:00.411Z,937.2
2024-03-28T08:00:00.466Z,937.2
2024-03-28T08:01:02.387Z,937.2
2024-03-28T08:02:00.415Z,937.2
2024-03-28T08:03:00.412Z,937.2
2024-03-28T08:04:00.413Z,937.3
2024-03-28T08:05:00.432Z,937.3
2024-03-28T08:06:01.064Z,937.3
2024-03-28T08:07:00.495Z,937.3
2024-03-28T08:08:00.403Z,937.3
2024-03-28T08:09:00.432Z,937.3
2024-03-28T08:10:00.434Z,937.3
2024-03-28T08:11:00.402Z,937.3
2024-03-28T08:12:00.432Z,937.3
2024-03-28T08:13:00.451Z,937.3
2024-03-28T08:14:00.434Z,937.3
2024-03-28T08:15:00.439Z,937.3
2024-03-28T08:16:00.397Z,937.3
2024-03-28T08:17:00.717Z,937.3
2024-03-28T08:18:00.692Z,937.3
2024-03-28T08:19:00.424Z,937.3
2024-03-28T08:20:00.700Z,937.3
2024-03-28T08:21:00.463Z,937.3
2024-03-28T08:22:00.431Z,937.4
2024-03-28T08:23:00.385Z,937.4
2024-03-28T08:24:00.430Z,937.4
2024-03-28T08:25:00.492Z,937.4
2024-03-28T08:26:00.431Z,937.4
2024-03-28T08:27:00.405Z,937.4
2024-03-28T08:28:00.479Z,937.4
2024-03-28T08:29:00.434Z,937.4
2024-03-28T08:30:00.549Z,937.4
2024-03-28T08:31:00.607Z,937.5
2024-03-28T08:32:00.505Z,937.5
2024-03-28T08:33:00.545Z,937.5
2024-03-28T08:34:00.449Z,937.5
2024-03-28T08:35:00.748Z,937.5
2024-03-28T08:36:01.508Z,937.5
2024-03-28T08:37:00.522Z,937.6
2024-03-28T08:38:00.529Z,937.6
2024-03-28T08:39:00.582Z,937.6
2024-03-28T08:40:00.431Z,937.6
2024-03-28T08:41:00.574Z,937.6
2024-03-28T08:42:00.520Z,937.6
2024-03-28T08:43:03.533Z,937.7
2024-03-28T08:44:00.483Z,937.7
2024-03-28T08:45:00.530Z,937.7
2024-03-28T08:46:00.461Z,937.7
2024-03-28T08:47:00.439Z,937.7
2024-03-28T08:48:01.103Z,937.7
2024-03-28T08:49:00.499Z,937.8
2024-03-28T08:50:00.620Z,937.8
2024-03-28T08:51:00.464Z,937.8
2024-03-28T08:52:00.412Z,937.8
2024-03-28T08:53:00.395Z,937.8
2024-03-28T08:54:00.535Z,937.9
2024-03-28T08:55:00.424Z,937.9
2024-03-28T08:56:00.439Z,937.9
2024-03-28T08:57:00.431Z,937.9
2024-03-28T08:58:00.428Z,938.0
2024-03-28T08:59:00.500Z,938.0
2024-03-28T09:00:00.500Z,938.0
2024-03-28T09:01:00.491Z,938.1
2024-03-28T09:02:00.453Z,938.1
2024-03-28T09:03:00.490Z,938.2
2024-03-28T09:04:00.592Z,938.2
2024-03-28T09:05:00.610Z,938.2
2024-03-28T09:06:00.641Z,938.2
2024-03-28T09:07:00.792Z,938.3
2024-03-28T09:08:00.488Z,938.3
2024-03-28T09:09:00.747Z,938.3
2024-03-28T09:10:00.578Z,938.3
2024-03-28T09:11:00.524Z,938.4
2024-03-28T09:12:00.528Z,938.4
2024-03-28T09:13:00.509Z,938.4
2024-03-28T09:14:00.467Z,938.4
2024-03-28T09:15:01.021Z,938.5
2024-03-28T09:16:00.527Z,938.5
2024-03-28T09:17:00.884Z,938.5
2024-03-28T09:18:00.561Z,938.6
2024-03-28T09:19:01.804Z,938.6
2024-03-28T09:20:00.693Z,938.6
2024-03-28T09:21:00.934Z,938.6
2024-03-28T09:22:00.718Z,938.7
2024-03-28T09:23:00.383Z,938.7
2024-03-28T09:24:00.417Z,938.7
2024-03-28T09:25:00.858Z,938.7
2024-03-28T09:26:00.688Z,938.8
2024-03-28T09:27:00.480Z,938.8
2024-03-28T09:28:00.414Z,938.8
2024-03-28T09:29:00.445Z,938.8
2024-03-28T09:30:00.628Z,938.8
2024-03-28T09:31:00.413Z,938.9
2024-03-28T09:32:00.436Z,938.9
2024-03-28T09:33:00.426Z,938.9
2024-03-28T09:34:00.427Z,938.9
2024-03-28T09:35:00.459Z,938.9
2024-03-28T09:36:00.593Z,938.9
2024-03-28T09:37:00.717Z,939.0
2024-03-28T09:38:00.420Z,939.0
2024-03-28T09:39:00.440Z,939.0
2024-03-28T09:40:04.011Z,939.0
2024-03-28T09:41:05.822Z,939.1
2024-03-28T09:42:02.246Z,939.1
2024-03-28T09:43:00.538Z,939.1
2024-03-28T09:44:03.463Z,939.1
2024-03-28T09:45:00.742Z,939.1
2024-03-28T09:46:01.011Z,939.2
2024-03-28T09:47:00.722Z,939.2
2024-03-28T09:48:00.942Z,939.2
2024-03-28T09:49:01.190Z,939.2
2024-03-28T09:50:01.003Z,939.2
2024-03-28T09:51:00.526Z,939.2
2024-03-28T09:52:01.333Z,939.3
2024-03-28T09:53:00.458Z,939.3
2024-03-28T09:54:03.423Z,939.3
2024-03-28T09:55:01.134Z,939.3
2024-03-28T09:56:00.428Z,939.3
2024-03-28T09:57:00.402Z,939.3
2024-03-28T09:58:00.411Z,939.4
2024-03-28T09:59:00.704Z,939.4
2024-03-28T10:00:00.403Z,939.4
2024-03-28T10:01:00.527Z,939.4
2024-03-28T10:02:07.479Z,939.4
2024-03-28T10:03:05.137Z,939.5
2024-03-28T10:04:04.265Z,939.5
2024-03-28T10:05:01.766Z,939.5
2024-03-28T10:06:00.407Z,939.5
2024-03-28T10:07:00.430Z,939.5
2024-03-28T10:08:01.567Z,939.6
2024-03-28T10:09:01.323Z,939.6
2024-03-28T10:10:00.456Z,939.6
2024-03-28T10:11:00.467Z,939.6
2024-03-28T10:12:09.162Z,939.6
2024-03-28T10:13:00.422Z,939.6
2024-03-28T10:14:10.782Z,939.7
2024-03-28T10:15:00.465Z,939.7
2024-03-28T10:16:00.805Z,939.7
2024-03-28T10:17:00.643Z,939.7
2024-03-28T10:18:02.122Z,939.7
2024-03-28T10:19:00.406Z,939.7
2024-03-28T10:20:00.640Z,939.7
2024-03-28T10:21:00.999Z,939.7
2024-03-28T10:22:06.882Z,939.8
2024-03-28T10:23:01.463Z,939.8
2024-03-28T10:24:01.907Z,939.8
2024-03-28T10:25:00.451Z,939.8
2024-03-28T10:26:00.430Z,939.8
2024-03-28T10:27:00.419Z,939.8
2024-03-28T10:28:00.411Z,939.8
2024-03-28T10:29:00.417Z,939.8
2024-03-28T10:30:00.476Z,939.8
2024-03-28T10:31:00.595Z,939.7
2024-03-28T10:32:05.539Z,939.7
2024-03-28T10:33:01.026Z,939.7
2024-03-28T10:34:02.329Z,939.8
2024-03-28T10:35:00.403Z,939.7
2024-03-28T10:36:02.488Z,939.7
2024-03-28T10:37:04.102Z,939.7
2024-03-28T10:39:00.882Z,939.7
2024-03-28T10:40:00.417Z,939.7
2024-03-28T10:41:00.645Z,939.7
2024-03-28T10:42:00.944Z,939.7
2024-03-28T10:43:00.936Z,939.7
2024-03-28T10:44:00.765Z,939.7
2024-03-28T10:45:00.576Z,939.8
2024-03-28T10:46:02.599Z,939.8
2024-03-28T10:47:01.461Z,939.8
2024-03-28T10:48:00.968Z,939.8
2024-03-28T10:49:01.682Z,939.8
2024-03-28T10:50:14.335Z,939.8
2024-03-28T10:52:01.962Z,939.8
2024-03-28T10:53:05.469Z,939.8
2024-03-28T10:54:09.690Z,939.8
2024-03-28T10:55:04.064Z,939.8
2024-03-28T10:56:16.153Z,939.8
2024-03-28T10:57:01.883Z,939.8
2024-03-28T10:58:00.557Z,939.8
2024-03-28T10:59:01.088Z,939.8
2024-03-28T11:00:01.498Z,939.8
2024-03-28T11:01:07.910Z,939.8
2024-03-28T11:02:01.831Z,939.8
2024-03-28T11:03:02.032Z,939.8
2024-03-28T11:04:00.950Z,939.8
2024-03-28T11:05:01.581Z,939.8
2024-03-28T11:06:00.760Z,939.8
2024-03-28T11:07:00.555Z,939.8
2024-03-28T11:08:00.474Z,939.8
2024-03-28T11:09:00.850Z,939.8
2024-03-28T11:10:00.544Z,939.8
2024-03-28T11:11:00.898Z,939.8
2024-03-28T11:12:00.496Z,939.8
2024-03-28T11:13:00.533Z,939.8
2024-03-28T11:14:00.553Z,939.8
2024-03-28T11:15:00.410Z,939.8
2024-03-28T11:17:02.411Z,939.8
2024-03-28T11:18:00.507Z,939.8
2024-03-28T11:19:00.801Z,939.8
2024-03-28T11:20:00.970Z,939.8
2024-03-28T11:21:00.424Z,939.8
2024-03-28T11:22:00.487Z,939.9
2024-03-28T11:23:04.018Z,939.9
2024-03-28T11:24:00.731Z,939.9
2024-03-28T11:25:00.528Z,939.9
2024-03-28T11:26:04.312Z,939.9
2024-03-28T11:27:00.401Z,939.9
2024-03-28T11:28:02.634Z,939.9
2024-03-28T11:30:07.961Z,939.9
2024-03-28T11:31:00.808Z,939.9
2024-03-28T11:32:00.481Z,940.0
2024-03-28T11:33:08.730Z,940.0
2024-03-28T11:34:02.516Z,940.0
2024-03-28T11:35:08.142Z,940.0
2024-03-28T11:36:01.388Z,940.0
2024-03-28T11:37:00.380Z,940.0
2024-03-28T11:38:01.063Z,940.0
2024-03-28T11:39:00.416Z,940.0
2024-03-28T11:40:00.457Z,940.0
2024-03-28T11:41:00.628Z,940.0
2024-03-28T11:42:00.456Z,940.0
2024-03-28T11:43:16.698Z,940.0
2024-03-28T11:44:01.351Z,940.1
2024-03-28T11:45:08.161Z,940.1
2024-03-28T11:46:00.795Z,940.1
2024-03-28T11:47:00.414Z,940.1
2024-03-28T11:48:01.462Z,940.1
2024-03-28T11:49:00.399Z,940.1
2024-03-28T11:50:04.395Z,940.1
2024-03-28T11:51:01.236Z,940.1
2024-03-28T11:52:00.582Z,940.1
2024-03-28T11:53:00.488Z,940.1
2024-03-28T11:54:04.413Z,940.1
2024-03-28T11:55:00.995Z,940.1
2024-03-28T11:56:01.057Z,940.1
2024-03-28T11:57:00.443Z,940.1
2024-03-28T11:58:03.844Z,940.1
2024-03-28T11:59:00.412Z,940.1
2024-03-28T12:00:07.816Z,940.2
2024-03-28T12:01:02.364Z,940.2
2024-03-28T12:02:01.208Z,940.2
2024-03-28T12:03:00.373Z,940.2
2024-03-28T12:04:00.458Z,940.2
2024-03-28T12:05:04.123Z,940.2
2024-03-28T12:06:00.398Z,940.2
2024-03-28T12:07:03.017Z,940.2
2024-03-28T12:08:00.395Z,940.2
2024-03-28T12:09:00.431Z,940.2
2024-03-28T12:10:00.409Z,940.2
2024-03-28T12:11:01.455Z,940.3
2024-03-28T12:12:08.702Z,940.3
2024-03-28T12:13:01.580Z,940.3
2024-03-28T12:14:00.382Z,940.3
2024-03-28T12:15:01.943Z,940.3
2024-03-28T12:16:01.223Z,940.3
2024-03-28T12:17:00.392Z,940.3
2024-03-28T12:18:00.413Z,940.3
2024-03-28T12:19:03.886Z,940.4
2024-03-28T12:20:15.859Z,940.4
2024-03-28T12:21:01.647Z,940.4
2024-03-28T12:22:02.181Z,940.4
2024-03-28T12:23:00.933Z,940.4
2024-03-28T12:24:00.444Z,940.4
2024-03-28T12:25:01.023Z,940.4
2024-03-28T12:26:00.538Z,940.5
2024-03-28T12:27:00.451Z,940.5
2024-03-28T12:28:01.025Z,940.5
2024-03-28T12:29:00.509Z,940.5
2024-03-28T12:30:09.350Z,940.5
2024-03-28T12:31:00.510Z,940.5
2024-03-28T12:32:04.136Z,940.5
2024-03-28T12:33:01.500Z,940.5
2024-03-28T12:34:15.834Z,940.6
2024-03-28T12:35:01.537Z,940.6
2024-03-28T12:36:00.517Z,940.6
2024-03-28T12:37:00.529Z,940.6
2024-03-28T12:38:01.124Z,940.6
2024-03-28T12:39:00.616Z,940.6
2024-03-28T12:40:01.453Z,940.6
2024-03-28T12:41:00.521Z,940.6
2024-03-28T12:42:00.526Z,940.7
2024-03-28T12:43:00.489Z,940.7
2024-03-28T12:44:00.640Z,940.7
2024-03-28T12:45:23.254Z,940.7
2024-03-28T12:46:01.520Z,940.7
2024-03-28T12:47:00.520Z,940.7
2024-03-28T12:48:00.558Z,940.7
2024-03-28T12:49:00.699Z,940.8
2024-03-28T12:50:00.593Z,940.8
2024-03-28T12:51:00.559Z,940.8
2024-03-28T12:52:00.531Z,940.8
2024-03-28T12:53:00.593Z,940.8
2024-03-28T12:54:00.559Z,940.8
2024-03-28T12:55:00.665Z,940.9
2024-03-28T12:56:00.569Z,940.9